sensor_id;sensor_type;location;lat;lon;timestamp;pressure;altitude;pressure_sealevel;temperature;humidity
56514;BME280;62152;52.078;8.414;2024-01-06T00:01:19;98697.81;;;17.89;61.53
56514;BME280;62152;52.078;8.414;2024-01-06T00:05:20;98692.34;;;17.86;61.43
56514;BME280;62152;52.078;8.414;2024-01-06T00:09:21;98695.47;;;17.88;61.49
56514;BME280;62152;52.078;8.414;2024-01-06T00:13:24;98695.47;;;17.88;61.35
56514;BME280;62152;52.078;8.414;2024-01-06T00:17:25;98692.72;;;17.84;61.61
56514;BME280;62152;52.078;8.414;2024-01-06T00:21:25;98700.19;;;17.84;61.49
56514;BME280;62152;52.078;8.414;2024-01-06T00:25:26;98710.78;;;17.82;61.54
56514;BME280;62152;52.078;8.414;2024-01-06T00:29:29;98716.63;;;17.84;61.59
56514;BME280;62152;52.078;8.414;2024-01-06T00:33:30;98719.38;;;17.84;61.31
56514;BME280;62152;52.078;8.414;2024-01-06T00:37:31;98717.44;;;17.81;61.65
56514;BME280;62152;52.078;8.414;2024-01-06T00:41:32;98719.00;;;17.82;61.49
56514;BME280;62152;52.078;8.414;2024-01-06T00:45:35;98719.41;;;17.80;61.53
56514;BME280;62152;52.078;8.414;2024-01-06T00:49:36;98722.94;;;17.81;61.35
56514;BME280;62152;52.078;8.414;2024-01-06T00:53:37;98733.53;;;17.79;61.54
56514;BME280;62152;52.078;8.414;2024-01-06T00:57:38;98735.84;;;17.84;61.37
56514;BME280;62152;52.078;8.414;2024-01-06T01:01:41;98738.63;;;17.80;61.49
56514;BME280;62152;52.078;8.414;2024-01-06T01:05:44;98733.13;;;17.80;61.32
56514;BME280;62152;52.078;8.414;2024-01-06T01:09:44;98746.84;;;17.76;61.37
56514;BME280;62152;52.078;8.414;2024-01-06T01:13:45;98751.16;;;17.77;61.54
56514;BME280;62152;52.078;8.414;2024-01-06T01:17:49;98752.31;;;17.76;61.59
56514;BME280;62152;52.078;8.414;2024-01-06T01:21:49;98762.91;;;17.78;61.35
56514;BME280;62152;52.078;8.414;2024-01-06T01:25:50;98772.31;;;17.77;61.32
56514;BME280;62152;52.078;8.414;2024-01-06T01:29:51;98786.03;;;17.73;61.54
56514;BME280;62152;52.078;8.414;2024-01-06T01:33:54;98788.38;;;17.75;61.50
56514;BME280;62152;52.078;8.414;2024-01-06T01:37:55;98786.41;;;17.75;61.26
56514;BME280;62152;52.078;8.414;2024-01-06T01:41:56;98801.69;;;17.76;61.15
56514;BME280;62152;52.078;8.414;2024-01-06T01:45:57;98793.09;;;17.74;61.49
56514;BME280;62152;52.078;8.414;2024-01-06T01:50:01;98786.41;;;17.75;61.47
56514;BME280;62152;52.078;8.414;2024-01-06T01:54:05;98785.63;;;17.79;61.19
56514;BME280;62152;52.078;8.414;2024-01-06T01:58:06;98790.72;;;17.80;61.08
56514;BME280;62152;52.078;8.414;2024-01-06T02:02:08;98803.28;;;17.77;61.10
56514;BME280;62152;52.078;8.414;2024-01-06T02:06:12;98798.56;;;17.74;61.31
56514;BME280;62152;52.078;8.414;2024-01-06T02:10:13;98800.13;;;17.75;61.29
56514;BME280;62152;52.078;8.414;2024-01-06T02:14:13;98802.09;;;17.75;61.21
56514;BME280;62152;52.078;8.414;2024-01-06T02:18:14;98798.16;;;17.76;61.08
56514;BME280;62152;52.078;8.414;2024-01-06T02:22:17;98800.53;;;17.77;61.14
56514;BME280;62152;52.078;8.414;2024-01-06T02:26:19;98808.34;;;17.75;61.10
56514;BME280;62152;52.078;8.414;2024-01-06T02:30:19;98803.28;;;17.74;61.12
56514;BME280;62152;52.078;8.414;2024-01-06T02:34:20;98806.03;;;17.77;61.20
56514;BME280;62152;52.078;8.414;2024-01-06T02:38:23;98818.53;;;17.75;61.23
56514;BME280;62152;52.078;8.414;2024-01-06T02:42:24;98817.38;;;17.72;61.33
56514;BME280;62152;52.078;8.414;2024-01-06T02:46:25;98818.13;;;17.76;61.19
56514;BME280;62152;52.078;8.414;2024-01-06T02:50:26;98817.38;;;17.76;61.06
56514;BME280;62152;52.078;8.414;2024-01-06T02:54:29;98810.69;;;17.77;60.97
56514;BME280;62152;52.078;8.414;2024-01-06T02:58:30;98824.03;;;17.75;61.00
56514;BME280;62152;52.078;8.414;2024-01-06T03:02:30;98822.47;;;17.74;61.09
56514;BME280;62152;52.078;8.414;2024-01-06T03:06:31;98827.56;;;17.75;60.98
56514;BME280;62152;52.078;8.414;2024-01-06T03:10:35;98833.06;;;17.72;61.14
56514;BME280;62152;52.078;8.414;2024-01-06T03:14:35;98835.41;;;17.73;61.10
56514;BME280;62152;52.078;8.414;2024-01-06T03:18:36;98849.13;;;17.73;60.97
56514;BME280;62152;52.078;8.414;2024-01-06T03:22:37;98853.03;;;17.72;61.05
56514;BME280;62152;52.078;8.414;2024-01-06T03:26:40;98857.34;;;17.73;61.13
56514;BME280;62152;52.078;8.414;2024-01-06T03:30:41;98852.63;;;17.74;60.91
56514;BME280;62152;52.078;8.414;2024-01-06T03:34:42;98860.47;;;17.75;60.85
56514;BME280;62152;52.078;8.414;2024-01-06T03:38:42;98860.88;;;17.74;61.09
56514;BME280;62152;52.078;8.414;2024-01-06T03:42:46;98866.75;;;17.72;60.92
56514;BME280;62152;52.078;8.414;2024-01-06T03:46:47;98866.34;;;17.74;60.82
56514;BME280;62152;52.078;8.414;2024-01-06T03:50:48;98877.31;;;17.74;60.99
56514;BME280;62152;52.078;8.414;2024-01-06T03:54:49;98882.38;;;17.68;61.14
56514;BME280;62152;52.078;8.414;2024-01-06T03:58:52;98880.03;;;17.70;60.96
56514;BME280;62152;52.078;8.414;2024-01-06T04:02:53;98888.25;;;17.70;60.90
56514;BME280;62152;52.078;8.414;2024-01-06T04:06:53;98886.69;;;17.69;61.10
56514;BME280;62152;52.078;8.414;2024-01-06T04:10:54;98896.88;;;17.69;61.16
56514;BME280;62152;52.078;8.414;2024-01-06T04:14:58;98896.47;;;17.70;60.90
56514;BME280;62152;52.078;8.414;2024-01-06T04:18:58;98908.28;;;17.71;61.01
56514;BME280;62152;52.078;8.414;2024-01-06T04:22:59;98910.19;;;17.70;60.97
56514;BME280;62152;52.078;8.414;2024-01-06T04:27:00;98912.16;;;17.70;60.88
56514;BME280;62152;52.078;8.414;2024-01-06T04:31:03;98914.09;;;17.69;60.85
56514;BME280;62152;52.078;8.414;2024-01-06T04:35:05;98912.53;;;17.68;60.90
56514;BME280;62152;52.078;8.414;2024-01-06T04:39:06;98925.06;;;17.69;60.79
56514;BME280;62152;52.078;8.414;2024-01-06T04:43:07;98935.25;;;17.69;60.82
56514;BME280;62152;52.078;8.414;2024-01-06T04:47:10;98941.16;;;17.67;60.86
56514;BME280;62152;52.078;8.414;2024-01-06T04:51:11;98943.88;;;17.67;61.13
56514;BME280;62152;52.078;8.414;2024-01-06T04:55:12;98943.09;;;17.70;60.94
56514;BME280;62152;52.078;8.414;2024-01-06T04:59:12;98948.59;;;17.67;60.83
56514;BME280;62152;52.078;8.414;2024-01-06T05:03:16;98957.59;;;17.67;61.12
56514;BME280;62152;52.078;8.414;2024-01-06T05:07:16;98963.47;;;17.66;61.05
56514;BME280;62152;52.078;8.414;2024-01-06T05:11:17;98967.00;;;17.66;60.91
56514;BME280;62152;52.078;8.414;2024-01-06T05:15:18;98971.69;;;17.69;60.89
56514;BME280;62152;52.078;8.414;2024-01-06T05:19:22;98968.19;;;17.65;60.93
56514;BME280;62152;52.078;8.414;2024-01-06T05:23:22;98965.81;;;17.67;60.83
56514;BME280;62152;52.078;8.414;2024-01-06T05:27:23;98967.41;;;17.65;60.79
56514;BME280;62152;52.078;8.414;2024-01-06T05:31:24;98972.88;;;17.65;60.89
56514;BME280;62152;52.078;8.414;2024-01-06T05:35:27;98979.16;;;17.65;60.87
56514;BME280;62152;52.078;8.414;2024-01-06T05:39:28;98984.22;;;17.63;61.02
56514;BME280;62152;52.078;8.414;2024-01-06T05:43:29;98986.19;;;17.63;61.08
56514;BME280;62152;52.078;8.414;2024-01-06T05:47:30;98999.53;;;17.64;61.04
56514;BME280;62152;52.078;8.414;2024-01-06T05:51:34;98997.94;;;17.63;60.85
56514;BME280;62152;52.078;8.414;2024-01-06T05:55:34;99008.91;;;17.63;60.85
56514;BME280;62152;52.078;8.414;2024-01-06T05:59:35;99006.56;;;17.65;60.85
56514;BME280;62152;52.078;8.414;2024-01-06T06:03:36;99022.25;;;17.65;60.84
56514;BME280;62152;52.078;8.414;2024-01-06T06:07:39;99026.16;;;17.60;61.02
56514;BME280;62152;52.078;8.414;2024-01-06T06:11:40;99034.38;;;17.64;60.84
56514;BME280;62152;52.078;8.414;2024-01-06T06:15:41;99043.38;;;17.61;61.08
56514;BME280;62152;52.078;8.414;2024-01-06T06:19:42;99048.09;;;17.60;60.82
56514;BME280;62152;52.078;8.414;2024-01-06T06:23:45;99050.81;;;17.60;60.96
56514;BME280;62152;52.078;8.414;2024-01-06T06:27:46;99053.56;;;17.60;61.12
56514;BME280;62152;52.078;8.414;2024-01-06T06:31:47;99066.09;;;17.58;60.83
56514;BME280;62152;52.078;8.414;2024-01-06T06:35:48;99080.19;;;17.56;60.96
56514;BME280;62152;52.078;8.414;2024-01-06T06:39:51;99089.19;;;17.57;61.04
56514;BME280;62152;52.078;8.414;2024-01-06T06:43:52;99086.84;;;17.55;60.76
56514;BME280;62152;52.078;8.414;2024-01-06T06:47:52;99091.16;;;17.56;60.94
56514;BME280;62152;52.078;8.414;2024-01-06T06:51:53;99099.78;;;17.55;60.98
56514;BME280;62152;52.078;8.414;2024-01-06T06:55:57;99101.34;;;17.52;60.87
56514;BME280;62152;52.078;8.414;2024-01-06T06:59:57;99119.34;;;17.53;60.96
56514;BME280;62152;52.078;8.414;2024-01-06T07:03:58;99122.91;;;17.57;60.67
56514;BME280;62152;52.078;8.414;2024-01-06T07:08:00;99135.00;;;17.49;60.91
56514;BME280;62152;52.078;8.414;2024-01-06T07:12:04;99138.13;;;17.47;61.09
56514;BME280;62152;52.078;8.414;2024-01-06T07:16:05;99142.06;;;17.46;60.94
56514;BME280;62152;52.078;8.414;2024-01-06T07:20:08;99139.31;;;17.46;61.02
56514;BME280;62152;52.078;8.414;2024-01-06T07:24:08;99153.78;;;17.47;60.63
56514;BME280;62152;52.078;8.414;2024-01-06T07:28:12;99158.50;;;17.46;60.70
56514;BME280;62152;52.078;8.414;2024-01-06T07:32:12;99165.28;;;16.39;59.91
56514;BME280;62152;52.078;8.414;2024-01-06T07:36:13;99174.66;;;15.94;57.61
56514;BME280;62152;52.078;8.414;2024-01-06T07:40:14;99177.09;;;16.02;57.71
56514;BME280;62152;52.078;8.414;2024-01-06T07:44:17;99186.63;;;15.78;56.30
56514;BME280;62152;52.078;8.414;2024-01-06T07:48:18;99192.44;;;15.73;54.75
56514;BME280;62152;52.078;8.414;2024-01-06T07:52:19;99197.69;;;15.59;53.92
56514;BME280;62152;52.078;8.414;2024-01-06T07:56:20;99205.63;;;16.97;54.74
56514;BME280;62152;52.078;8.414;2024-01-06T08:00:23;99213.94;;;17.11;55.12
56514;BME280;62152;52.078;8.414;2024-01-06T08:04:24;99212.75;;;17.12;55.25
56514;BME280;62152;52.078;8.414;2024-01-06T08:08:25;99223.38;;;17.17;55.27
56514;BME280;62152;52.078;8.414;2024-01-06T08:12:26;99214.75;;;17.19;55.37
56514;BME280;62152;52.078;8.414;2024-01-06T08:16:29;99224.91;;;17.15;56.12
56514;BME280;62152;52.078;8.414;2024-01-06T08:20:30;99221.03;;;17.19;55.89
56514;BME280;62152;52.078;8.414;2024-01-06T08:24:31;99241.38;;;17.22;56.08
56514;BME280;62152;52.078;8.414;2024-01-06T08:28:31;99248.47;;;17.23;56.26
56514;BME280;62152;52.078;8.414;2024-01-06T08:32:35;99254.69;;;17.20;56.50
56514;BME280;62152;52.078;8.414;2024-01-06T08:36:36;99261.38;;;17.22;56.84
56514;BME280;62152;52.078;8.414;2024-01-06T08:40:37;99273.56;;;17.36;57.36
56514;BME280;62152;52.078;8.414;2024-01-06T08:44:37;99269.69;;;17.37;57.44
56514;BME280;62152;52.078;8.414;2024-01-06T08:48:41;99281.81;;;17.39;58.02
56514;BME280;62152;52.078;8.414;2024-01-06T08:52:41;99292.44;;;17.44;58.05
56514;BME280;62152;52.078;8.414;2024-01-06T08:56:42;99292.41;;;17.41;58.43
56514;BME280;62152;52.078;8.414;2024-01-06T09:00:43;99302.56;;;17.40;58.75
56514;BME280;62152;52.078;8.414;2024-01-06T09:04:47;99304.88;;;17.35;58.68
56514;BME280;62152;52.078;8.414;2024-01-06T09:08:47;99319.78;;;17.37;58.72
56514;BME280;62152;52.078;8.414;2024-01-06T09:12:48;99325.63;;;17.36;58.94
56514;BME280;62152;52.078;8.414;2024-01-06T09:16:49;99335.84;;;17.39;58.92
56514;BME280;62152;52.078;8.414;2024-01-06T09:20:53;99343.69;;;17.37;59.09
56514;BME280;62152;52.078;8.414;2024-01-06T09:24:54;99347.22;;;17.37;59.35
56514;BME280;62152;52.078;8.414;2024-01-06T09:28:54;99347.56;;;17.36;59.26
56514;BME280;62152;52.078;8.414;2024-01-06T09:32:55;99358.13;;;17.30;59.50
56514;BME280;62152;52.078;8.414;2024-01-06T09:36:58;99369.88;;;17.31;59.57
56514;BME280;62152;52.078;8.414;2024-01-06T09:40:59;99365.97;;;17.32;59.44
56514;BME280;62152;52.078;8.414;2024-01-06T09:45:00;99373.78;;;17.30;59.55
56514;BME280;62152;52.078;8.414;2024-01-06T09:49:02;99386.31;;;17.31;59.61
56514;BME280;62152;52.078;8.414;2024-01-06T09:53:07;99388.28;;;17.30;59.57
56514;BME280;62152;52.078;8.414;2024-01-06T09:57:09;99390.63;;;17.32;59.41
56514;BME280;62152;52.078;8.414;2024-01-06T10:01:10;99395.72;;;17.30;59.46
56514;BME280;62152;52.078;8.414;2024-01-06T10:05:13;99397.25;;;17.27;59.75
56514;BME280;62152;52.078;8.414;2024-01-06T10:09:16;99392.16;;;17.29;59.44
56514;BME280;62152;52.078;8.414;2024-01-06T10:13:17;99389.47;;;17.33;59.61
56514;BME280;62152;52.078;8.414;2024-01-06T10:17:18;99393.72;;;17.27;59.49
56514;BME280;62152;52.078;8.414;2024-01-06T10:21:20;99404.72;;;17.30;59.65
56514;BME280;62152;52.078;8.414;2024-01-06T10:25:24;99406.66;;;17.30;59.35
56514;BME280;62152;52.078;8.414;2024-01-06T10:29:25;99409.81;;;17.32;59.55
56514;BME280;62152;52.078;8.414;2024-01-06T10:33:26;99415.25;;;17.28;59.43
56514;BME280;62152;52.078;8.414;2024-01-06T10:37:27;99417.97;;;17.25;59.75
56514;BME280;62152;52.078;8.414;2024-01-06T10:41:32;99416.03;;;17.25;59.48
56514;BME280;62152;52.078;8.414;2024-01-06T10:45:33;99418.00;;;17.28;59.44
56514;BME280;62152;52.078;8.414;2024-01-06T10:49:34;99422.31;;;17.29;59.64
56514;BME280;62152;52.078;8.414;2024-01-06T10:53:36;99423.91;;;17.30;59.41
56514;BME280;62152;52.078;8.414;2024-01-06T10:57:43;99434.06;;;17.30;59.45
56514;BME280;62152;52.078;8.414;2024-01-06T11:01:44;99433.66;;;17.28;59.46
56514;BME280;62152;52.078;8.414;2024-01-06T11:05:46;99430.50;;;17.26;59.47
56514;BME280;62152;52.078;8.414;2024-01-06T11:09:52;99427.00;;;17.29;59.68
56514;BME280;62152;52.078;8.414;2024-01-06T11:14:17;99430.91;;;17.28;59.65
56514;BME280;62152;52.078;8.414;2024-01-06T11:18:33;99425.44;;;17.28;59.65
56514;BME280;62152;52.078;8.414;2024-01-06T11:22:34;99428.59;;;17.33;59.48
56514;BME280;62152;52.078;8.414;2024-01-06T11:26:38;99431.34;;;17.30;59.66
56514;BME280;62152;52.078;8.414;2024-01-06T11:30:42;99423.91;;;17.30;59.51
56514;BME280;62152;52.078;8.414;2024-01-06T11:34:43;99432.06;;;17.27;59.50
56514;BME280;62152;52.078;8.414;2024-01-06T11:38:47;99427.00;;;17.29;59.66
56514;BME280;62152;52.078;8.414;2024-01-06T11:42:57;99425.41;;;17.24;59.51
56514;BME280;62152;52.078;8.414;2024-01-06T11:47:00;99426.19;;;17.25;59.74
56514;BME280;62152;52.078;8.414;2024-01-06T11:51:03;99424.66;;;17.27;59.73
56514;BME280;62152;52.078;8.414;2024-01-06T11:55:05;99420.72;;;17.28;59.39
56514;BME280;62152;52.078;8.414;2024-01-06T11:59:06;99422.69;;;17.28;59.61
56514;BME280;62152;52.078;8.414;2024-01-06T12:03:10;99427.44;;;17.31;59.67
56514;BME280;62152;52.078;8.414;2024-01-06T12:07:10;99428.16;;;17.28;59.48
56514;BME280;62152;52.078;8.414;2024-01-06T12:11:11;99436.81;;;17.30;59.66
56514;BME280;62152;52.078;8.414;2024-01-06T12:15:12;99437.16;;;17.28;59.60
56514;BME280;62152;52.078;8.414;2024-01-06T12:19:16;99433.66;;;17.28;59.48
56514;BME280;62152;52.078;8.414;2024-01-06T12:23:24;99440.34;;;17.30;59.58
56514;BME280;62152;52.078;8.414;2024-01-06T12:27:25;99437.78;;;17.55;59.15
56514;BME280;62152;52.078;8.414;2024-01-06T12:31:25;99442.28;;;17.74;58.84
56514;BME280;62152;52.078;8.414;2024-01-06T12:35:29;99451.81;;;17.46;59.56
56514;BME280;62152;52.078;8.414;2024-01-06T12:39:30;99452.56;;;17.40;59.55
56514;BME280;62152;52.078;8.414;2024-01-06T12:43:31;99456.41;;;17.35;59.80
56514;BME280;62152;52.078;8.414;2024-01-06T12:47:32;99458.38;;;17.35;59.82
56514;BME280;62152;52.078;8.414;2024-01-06T12:51:36;99458.66;;;17.70;58.15
56514;BME280;62152;52.078;8.414;2024-01-06T12:55:36;99467.78;;;17.82;57.90
56514;BME280;62152;52.078;8.414;2024-01-06T12:59:37;99468.13;;;17.76;58.39
56514;BME280;62152;52.078;8.414;2024-01-06T13:03:38;99472.44;;;17.74;58.22
56514;BME280;62152;52.078;8.414;2024-01-06T13:07:41;99463.91;;;17.86;58.43
56514;BME280;62152;52.078;8.414;2024-01-06T13:11:43;99464.06;;;18.18;57.97
56514;BME280;62152;52.078;8.414;2024-01-06T13:15:43;99470.34;;;18.15;57.69
56514;BME280;62152;52.078;8.414;2024-01-06T13:19:44;99468.38;;;18.12;57.67
56514;BME280;62152;52.078;8.414;2024-01-06T13:23:48;99483.75;;;18.27;57.55
56514;BME280;62152;52.078;8.414;2024-01-06T13:27:48;99496.63;;;18.16;58.19
56514;BME280;62152;52.078;8.414;2024-01-06T13:31:49;99492.78;;;18.31;57.97
56514;BME280;62152;52.078;8.414;2024-01-06T13:35:50;99506.03;;;18.15;57.84
56514;BME280;62152;52.078;8.414;2024-01-06T13:39:53;99508.00;;;18.15;58.43
56514;BME280;62152;52.078;8.414;2024-01-06T13:43:54;99503.63;;;18.07;59.03
56514;BME280;62152;52.078;8.414;2024-01-06T13:47:55;99513.41;;;18.04;58.88
56514;BME280;62152;52.078;8.414;2024-01-06T13:51:56;99512.00;;;17.73;59.46
56514;BME280;62152;52.078;8.414;2024-01-06T13:55:59;99524.81;;;17.62;59.84
56514;BME280;62152;52.078;8.414;2024-01-06T14:00:00;99528.69;;;17.57;59.96
56514;BME280;62152;52.078;8.414;2024-01-06T14:04:01;99532.97;;;17.55;59.82
56514;BME280;62152;52.078;8.414;2024-01-06T14:08:03;99549.81;;;17.53;60.07
56514;BME280;62152;52.078;8.414;2024-01-06T14:12:06;99553.31;;;17.50;59.80
56514;BME280;62152;52.078;8.414;2024-01-06T14:16:07;99554.88;;;17.51;59.75
56514;BME280;62152;52.078;8.414;2024-01-06T14:20:09;99545.09;;;17.50;60.00
56514;BME280;62152;52.078;8.414;2024-01-06T14:24:10;99557.63;;;17.51;59.82
56514;BME280;62152;52.078;8.414;2024-01-06T14:28:13;99560.72;;;17.49;59.60
56514;BME280;62152;52.078;8.414;2024-01-06T14:32:14;99567.31;;;17.41;60.11
56514;BME280;62152;52.078;8.414;2024-01-06T14:36:15;99575.16;;;17.43;59.81
56514;BME280;62152;52.078;8.414;2024-01-06T14:40:16;99582.22;;;17.44;59.96
56514;BME280;62152;52.078;8.414;2024-01-06T14:44:19;99590.78;;;17.39;59.81
56514;BME280;62152;52.078;8.414;2024-01-06T14:48:20;99586.13;;;17.43;59.95
56514;BME280;62152;52.078;8.414;2024-01-06T14:52:21;99587.66;;;17.40;60.01
56514;BME280;62152;52.078;8.414;2024-01-06T14:56:21;99599.41;;;17.41;59.91
56514;BME280;62152;52.078;8.414;2024-01-06T15:00:25;99601.75;;;17.39;59.83
56514;BME280;62152;52.078;8.414;2024-01-06T15:04:26;99612.34;;;17.40;59.87
56514;BME280;62152;52.078;8.414;2024-01-06T15:08:26;99618.13;;;17.35;59.92
56514;BME280;62152;52.078;8.414;2024-01-06T15:12:28;99620.94;;;17.39;60.00
56514;BME280;62152;52.078;8.414;2024-01-06T15:16:31;99626.38;;;17.35;59.82
56514;BME280;62152;52.078;8.414;2024-01-06T15:20:32;99629.91;;;17.36;59.77
56514;BME280;62152;52.078;8.414;2024-01-06T15:24:33;99639.28;;;17.35;60.02
56514;BME280;62152;52.078;8.414;2024-01-06T15:28:33;99645.03;;;17.22;60.22
56514;BME280;62152;52.078;8.414;2024-01-06T15:32:37;99660.78;;;17.66;61.40
56514;BME280;62152;52.078;8.414;2024-01-06T15:36:38;99661.81;;;17.88;61.29
56514;BME280;62152;52.078;8.414;2024-01-06T15:40:39;99664.97;;;17.90;61.49
56514;BME280;62152;52.078;8.414;2024-01-06T15:44:40;99660.78;;;18.00;61.29
56514;BME280;62152;52.078;8.414;2024-01-06T15:48:43;99675.72;;;18.06;61.32
56514;BME280;62152;52.078;8.414;2024-01-06T15:52:44;99677.50;;;17.88;61.75
56514;BME280;62152;52.078;8.414;2024-01-06T15:56:45;99680.56;;;17.83;61.97
56514;BME280;62152;52.078;8.414;2024-01-06T16:00:46;99685.31;;;17.86;61.45
56514;BME280;62152;52.078;8.414;2024-01-06T16:04:49;99690.88;;;17.59;62.24
56514;BME280;62152;52.078;8.414;2024-01-06T16:08:50;99704.47;;;17.48;62.37
56514;BME280;62152;52.078;8.414;2024-01-06T16:12:51;99698.94;;;17.45;62.31
56514;BME280;62152;52.078;8.414;2024-01-06T16:16:51;99708.69;;;17.42;62.34
56514;BME280;62152;52.078;8.414;2024-01-06T16:20:55;99715.41;;;17.45;62.38
56514;BME280;62152;52.078;8.414;2024-01-06T16:24:55;99722.00;;;17.40;62.28
56514;BME280;62152;52.078;8.414;2024-01-06T16:28:56;99730.22;;;17.40;62.01
56514;BME280;62152;52.078;8.414;2024-01-06T16:32:57;99731.00;;;17.41;62.00
56514;BME280;62152;52.078;8.414;2024-01-06T16:37:00;99733.81;;;17.44;61.56
56514;BME280;62152;52.078;8.414;2024-01-06T16:41:01;99736.44;;;17.37;61.69
56514;BME280;62152;52.078;8.414;2024-01-06T16:45:02;99732.56;;;17.42;61.53
56514;BME280;62152;52.078;8.414;2024-01-06T16:49:03;99738.81;;;17.39;61.62
56514;BME280;62152;52.078;8.414;2024-01-06T16:53:06;99737.25;;;17.38;61.70
56514;BME280;62152;52.078;8.414;2024-01-06T16:57:07;99745.88;;;17.40;61.62
56514;BME280;62152;52.078;8.414;2024-01-06T17:01:08;99744.22;;;17.32;61.48
56514;BME280;62152;52.078;8.414;2024-01-06T17:05:09;99755.25;;;17.39;61.31
56514;BME280;62152;52.078;8.414;2024-01-06T17:09:12;99754.50;;;17.42;61.29
56514;BME280;62152;52.078;8.414;2024-01-06T17:13:13;99757.63;;;17.40;61.39
56514;BME280;62152;52.078;8.414;2024-01-06T17:17:13;99766.59;;;17.37;61.17
56514;BME280;62152;52.078;8.414;2024-01-06T17:21:14;99768.56;;;17.37;61.38
56514;BME280;62152;52.078;8.414;2024-01-06T17:25:18;99775.66;;;17.41;61.16
56514;BME280;62152;52.078;8.414;2024-01-06T17:29:18;99771.75;;;17.42;60.94
56514;BME280;62152;52.078;8.414;2024-01-06T17:33:19;99774.88;;;17.41;61.11
56514;BME280;62152;52.078;8.414;2024-01-06T17:37:20;99777.13;;;17.35;61.17
56514;BME280;62152;52.078;8.414;2024-01-06T17:41:23;99788.94;;;17.39;61.01
56514;BME280;62152;52.078;8.414;2024-01-06T17:45:24;99792.47;;;17.40;60.94
56514;BME280;62152;52.078;8.414;2024-01-06T17:49:25;99801.47;;;17.37;61.01
56514;BME280;62152;52.078;8.414;2024-01-06T17:53:26;99809.72;;;17.40;60.92
56514;BME280;62152;52.078;8.414;2024-01-06T17:57:29;99808.50;;;17.38;60.74
56514;BME280;62152;52.078;8.414;2024-01-06T18:01:30;99815.56;;;17.39;60.88
56514;BME280;62152;52.078;8.414;2024-01-06T18:05:30;99821.06;;;17.39;60.86
56514;BME280;62152;52.078;8.414;2024-01-06T18:09:31;99818.25;;;17.35;60.87
56514;BME280;62152;52.078;8.414;2024-01-06T18:13:34;99821.78;;;17.36;60.73
56514;BME280;62152;52.078;8.414;2024-01-06T18:17:35;99824.53;;;17.36;60.86
56514;BME280;62152;52.078;8.414;2024-01-06T18:21:36;99830.81;;;17.36;60.88
56514;BME280;62152;52.078;8.414;2024-01-06T18:25:37;99830.81;;;17.36;60.77
56514;BME280;62152;52.078;8.414;2024-01-06T18:29:40;99840.19;;;17.35;60.95
56514;BME280;62152;52.078;8.414;2024-01-06T18:33:41;99836.66;;;17.35;60.79
56514;BME280;62152;52.078;8.414;2024-01-06T18:37:42;99840.56;;;17.34;60.70
56514;BME280;62152;52.078;8.414;2024-01-06T18:41:43;99845.31;;;17.37;60.60
56514;BME280;62152;52.078;8.414;2024-01-06T18:45:46;99847.28;;;17.36;60.71
56514;BME280;62152;52.078;8.414;2024-01-06T18:49:47;99852.72;;;17.63;59.94
56514;BME280;62152;52.078;8.414;2024-01-06T18:53:48;99854.16;;;17.80;59.84
56514;BME280;62152;52.078;8.414;2024-01-06T18:57:48;99864.28;;;17.75;60.46
56514;BME280;62152;52.078;8.414;2024-01-06T19:01:52;99861.63;;;17.83;60.45
56514;BME280;62152;52.078;8.414;2024-01-06T19:05:53;99866.75;;;17.84;60.41
56514;BME280;62152;52.078;8.414;2024-01-06T19:09:54;99873.78;;;17.82;60.60
56514;BME280;62152;52.078;8.414;2024-01-06T19:13:54;99878.44;;;17.77;60.54
56514;BME280;62152;52.078;8.414;2024-01-06T19:17:58;99885.53;;;17.82;60.63
56514;BME280;62152;52.078;8.414;2024-01-06T19:21:58;99890.66;;;17.84;60.76
56514;BME280;62152;52.078;8.414;2024-01-06T19:26:01;99882.09;;;17.62;61.34
56514;BME280;62152;52.078;8.414;2024-01-06T19:30:02;99890.97;;;17.52;61.76
56514;BME280;62152;52.078;8.414;2024-01-06T19:34:06;99896.38;;;17.48;61.80
56514;BME280;62152;52.078;8.414;2024-01-06T19:38:07;99902.63;;;17.45;61.57
56514;BME280;62152;52.078;8.414;2024-01-06T19:42:07;99911.22;;;17.44;61.63
56514;BME280;62152;52.078;8.414;2024-01-06T19:46:10;99915.09;;;17.43;61.68
56514;BME280;62152;52.078;8.414;2024-01-06T19:50:14;99924.13;;;17.43;61.76
56514;BME280;62152;52.078;8.414;2024-01-06T19:54:15;99916.38;;;17.49;61.37
56514;BME280;62152;52.078;8.414;2024-01-06T19:58:16;99922.97;;;17.44;61.44
56514;BME280;62152;52.078;8.414;2024-01-06T20:02:17;99935.09;;;17.43;61.65
56514;BME280;62152;52.078;8.414;2024-01-06T20:06:20;99945.25;;;17.43;61.44
56514;BME280;62152;52.078;8.414;2024-01-06T20:10:21;99954.63;;;17.42;61.59
56514;BME280;62152;52.078;8.414;2024-01-06T20:14:22;99944.84;;;17.41;61.67
56514;BME280;62152;52.078;8.414;2024-01-06T20:18:23;99950.31;;;17.41;61.48
56514;BME280;62152;52.078;8.414;2024-01-06T20:22:26;99946.41;;;17.42;61.54
56514;BME280;62152;52.078;8.414;2024-01-06T20:26:27;99952.66;;;17.39;61.62
56514;BME280;62152;52.078;8.414;2024-01-06T20:30:28;99955.38;;;17.39;61.58
56514;BME280;62152;52.078;8.414;2024-01-06T20:34:29;99955.38;;;17.39;61.47
56514;BME280;62152;52.078;8.414;2024-01-06T20:38:32;99953.06;;;17.41;61.39
56514;BME280;62152;52.078;8.414;2024-01-06T20:42:33;99953.03;;;17.37;61.13
56514;BME280;62152;52.078;8.414;2024-01-06T20:46:33;99954.97;;;17.37;61.23
56514;BME280;62152;52.078;8.414;2024-01-06T20:50:34;99959.28;;;17.38;61.10
56514;BME280;62152;52.078;8.414;2024-01-06T20:54:38;99966.34;;;17.39;61.00
56514;BME280;62152;52.078;8.414;2024-01-06T20:58:39;99971.41;;;17.37;60.96
56514;BME280;62152;52.078;8.414;2024-01-06T21:02:40;99967.88;;;17.36;61.07
56514;BME280;62152;52.078;8.414;2024-01-06T21:06:41;99967.44;;;17.34;60.98
56514;BME280;62152;52.078;8.414;2024-01-06T21:10:44;99970.97;;;17.35;60.96
56514;BME280;62152;52.078;8.414;2024-01-06T21:14:45;99974.50;;;17.35;61.09
56514;BME280;62152;52.078;8.414;2024-01-06T21:18:46;99977.63;;;17.34;61.15